createdAt,value
2019-05-02T00:00:50.026Z,100.0
2019-05-02T00:02:50.099Z,100.0
2019-05-02T00:04:57.242Z,100.0
2019-05-02T00:06:50.619Z,100.0
2019-05-02T00:08:50.589Z,100.0
2019-05-02T00:10:50.692Z,100.0
2019-05-02T00:12:50.693Z,100.0
2019-05-02T00:14:50.804Z,100.0
2019-05-02T00:16:50.883Z,100.0
2019-05-02T00:18:49.899Z,100.0
2019-05-02T00:20:50.018Z,100.0
2019-05-02T00:22:53.778Z,100.0
2019-05-02T00:24:49.821Z,100.0
2019-05-02T00:26:50.008Z,100.0
2019-05-02T00:28:50.332Z,100.0
2019-05-02T00:30:50.446Z,100.0
2019-05-02T00:32:59.813Z,100.0
2019-05-02T00:34:50.275Z,100.0
2019-05-02T00:36:50.456Z,100.0
2019-05-02T00:38:50.626Z,100.0
2019-05-02T00:40:50.704Z,100.0
2019-05-02T00:42:59.866Z,100.0
2019-05-02T00:44:50.002Z,100.0
2019-05-02T00:46:50.156Z,100.0
2019-05-02T00:49:02.094Z,100.0
2019-05-02T00:50:52.815Z,100.0
2019-05-02T00:52:49.859Z,100.0
2019-05-02T00:54:49.920Z,100.0
2019-05-02T00:56:50.048Z,100.0
2019-05-02T00:58:50.159Z,100.0
2019-05-02T01:00:55.094Z,100.0
2019-05-02T01:02:50.141Z,100.0
2019-05-02T01:04:50.503Z,100.0
2019-05-02T01:06:51.158Z,100.0
2019-05-02T01:08:50.228Z,100.0
2019-05-02T01:10:58.221Z,100.0
2019-05-02T01:12:50.380Z,100.0
2019-05-02T01:14:50.337Z,100.0
2019-05-02T01:16:56.566Z,100.0
2019-05-02T01:18:50.764Z,100.0
2019-05-02T01:20:49.911Z,100.0
2019-05-02T01:22:53.954Z,100.0
2019-05-02T01:24:50.055Z,100.0
2019-05-02T01:26:50.344Z,100.0
2019-05-02T01:28:56.080Z,100.0
2019-05-02T01:30:50.257Z,100.0
2019-05-02T01:32:50.365Z,100.0
2019-05-02T01:34:56.707Z,100.0
2019-05-02T01:36:50.039Z,100.0
2019-05-02T01:38:50.022Z,100.0
2019-05-02T01:40:55.100Z,100.0
2019-05-02T01:42:51.470Z,100.0
2019-05-02T01:44:50.557Z,100.0
2019-05-02T01:47:00.257Z,100.0
2019-05-02T01:48:50.271Z,100.0
2019-05-02T01:50:50.338Z,100.0
2019-05-02T01:53:00.331Z,100.0
2019-05-02T01:54:50.407Z,100.0
2019-05-02T01:56:50.725Z,100.0
2019-05-02T01:58:59.089Z,100.0
2019-05-02T02:00:50.196Z,100.0
2019-05-02T02:02:50.227Z,100.0
2019-05-02T02:04:58.284Z,100.0
2019-05-02T02:06:50.559Z,100.0
2019-05-02T02:08:49.931Z,100.0
2019-05-02T02:10:58.500Z,100.0
2019-05-02T02:13:05.609Z,100.0
2019-05-02T02:14:55.829Z,100.0
2019-05-02T02:16:50.024Z,100.0
2019-05-02T02:18:50.024Z,100.0
2019-05-02T02:20:50.690Z,100.0
2019-05-02T02:22:50.702Z,100.0
2019-05-02T02:24:49.766Z,100.0
2019-05-02T02:26:50.321Z,100.0
2019-05-02T02:28:50.332Z,100.0
2019-05-02T02:30:50.455Z,100.0
2019-05-02T02:32:50.548Z,100.0
2019-05-02T02:34:49.963Z,100.0
2019-05-02T02:36:50.229Z,100.0
2019-05-02T02:38:50.403Z,100.0
2019-05-02T02:40:50.467Z,100.0
2019-05-02T02:42:50.592Z,100.0
2019-05-02T02:44:50.615Z,100.0
2019-05-02T02:46:50.628Z,100.0
2019-05-02T02:48:50.728Z,100.0
2019-05-02T02:50:49.975Z,100.0
2019-05-02T02:52:50.025Z,100.0
2019-05-02T02:54:50.189Z,100.0
2019-05-02T02:56:50.373Z,100.0
2019-05-02T02:58:50.546Z,100.0
2019-05-02T03:00:50.591Z,100.0
2019-05-02T03:02:50.803Z,100.0
2019-05-02T03:04:50.195Z,100.0
2019-05-02T03:06:50.397Z,100.0
2019-05-02T03:08:50.457Z,100.0
2019-05-02T03:10:50.513Z,100.0
2019-05-02T03:12:50.602Z,100.0
2019-05-02T03:14:50.666Z,100.0
2019-05-02T03:16:50.138Z,100.0
2019-05-02T03:18:50.280Z,100.0
2019-05-02T03:20:50.294Z,100.0
2019-05-02T03:22:50.458Z,100.0
2019-05-02T03:24:50.443Z,100.0
2019-05-02T03:26:58.973Z,100.0
2019-05-02T03:29:01.273Z,100.0
2019-05-02T03:30:50.153Z,100.0
2019-05-02T03:33:12.826Z,100.0
2019-05-02T03:34:54.804Z,100.0
2019-05-02T03:36:50.159Z,100.0
2019-05-02T03:38:50.175Z,100.0
2019-05-02T03:40:50.334Z,100.0
2019-05-02T03:42:50.377Z,100.0
2019-05-02T03:45:05.768Z,100.0
2019-05-02T03:47:05.409Z,100.0
2019-05-02T03:48:49.962Z,100.0
2019-05-02T03:50:50.078Z,100.0
2019-05-02T03:52:50.178Z,100.0
2019-05-02T03:54:53.161Z,100.0
2019-05-02T03:56:53.798Z,100.0
2019-05-02T03:58:58.779Z,100.0
2019-05-02T04:01:04.324Z,100.0
2019-05-02T04:03:02.793Z,100.0
2019-05-02T04:05:03.177Z,100.0
2019-05-02T04:07:03.640Z,100.0
2019-05-02T04:09:02.412Z,100.0
2019-05-02T04:11:02.066Z,100.0
2019-05-02T04:13:00.182Z,100.0
2019-05-02T04:14:57.756Z,100.0
2019-05-02T04:16:57.702Z,100.0
2019-05-02T04:18:58.673Z,100.0
2019-05-02T04:20:52.495Z,100.0
2019-05-02T04:22:51.309Z,100.0
2019-05-02T04:24:57.439Z,100.0
2019-05-02T04:26:56.756Z,100.0
2019-05-02T04:28:54.101Z,100.0
2019-05-02T04:30:54.357Z,100.0
2019-05-02T04:32:58.080Z,100.0
2019-05-02T04:34:58.450Z,100.0
2019-05-02T04:37:04.474Z,100.0
2019-05-02T04:38:53.297Z,100.0
2019-05-02T04:40:50.403Z,100.0
2019-05-02T04:43:11.889Z,100.0
2019-05-02T04:45:38.339Z,100.0
2019-05-02T04:46:49.985Z,100.0
2019-05-02T04:48:53.597Z,100.0
2019-05-02T04:51:16.598Z,100.0
2019-05-02T04:52:54.597Z,100.0
2019-05-02T04:54:50.741Z,100.0
2019-05-02T04:56:58.553Z,100.0
2019-05-02T04:58:50.200Z,100.0
2019-05-02T05:01:02.277Z,100.0
2019-05-02T05:02:53.678Z,100.0
2019-05-02T05:04:50.217Z,100.0
2019-05-02T05:07:01.780Z,100.0
2019-05-02T05:08:50.534Z,100.0
2019-05-02T05:10:50.643Z,100.0
2019-05-02T05:12:50.643Z,100.0
2019-05-02T05:14:50.734Z,100.0
2019-05-02T05:16:58.372Z,100.0
2019-05-02T05:18:53.626Z,100.0
2019-05-02T05:20:54.691Z,100.0
2019-05-02T05:22:50.647Z,100.0
2019-05-02T05:24:50.679Z,100.0
2019-05-02T05:26:49.818Z,100.0
2019-05-02T05:28:50.818Z,100.0
2019-05-02T05:30:52.635Z,100.0
2019-05-02T05:32:49.816Z,100.0
2019-05-02T05:34:50.168Z,100.0
2019-05-02T05:36:49.902Z,100.0
2019-05-02T05:38:49.960Z,100.0
2019-05-02T05:40:50.704Z,100.0
2019-05-02T05:42:50.649Z,100.0
2019-05-02T05:44:50.755Z,100.0
2019-05-02T05:46:50.125Z,100.0
2019-05-02T05:48:50.210Z,100.0
2019-05-02T05:50:50.236Z,100.0
2019-05-02T05:52:52.426Z,100.0
2019-05-02T05:54:50.492Z,100.0
2019-05-02T05:56:50.658Z,100.0
2019-05-02T05:58:53.014Z,100.0
2019-05-02T06:00:58.689Z,100.0
2019-05-02T06:03:14.308Z,100.0
2019-05-02T06:05:03.943Z,100.0
2019-05-02T06:07:03.481Z,100.0
2019-05-02T06:08:55.730Z,99.9
2019-05-02T06:10:49.804Z,100.0
2019-05-02T06:12:49.787Z,98.2
2019-05-02T06:14:49.845Z,95.4
2019-05-02T06:16:53.544Z,94.0
2019-05-02T06:18:50.598Z,94.1
2019-05-02T06:20:50.672Z,95.5
2019-05-02T06:23:01.224Z,95.2
2019-05-02T06:24:52.475Z,94.5
2019-05-02T06:26:52.265Z,94.7
2019-05-02T06:28:50.257Z,96.8
2019-05-02T06:30:50.332Z,95.0
2019-05-02T06:32:56.871Z,94.8
2019-05-02T06:34:50.319Z,94.7
2019-05-02T06:36:50.534Z,92.4
2019-05-02T06:38:58.073Z,93.0
2019-05-02T06:40:50.161Z,91.3
2019-05-02T06:42:50.255Z,91.0
2019-05-02T06:44:50.283Z,89.0
2019-05-02T06:46:50.401Z,88.4
2019-05-02T06:48:53.993Z,84.5
2019-05-02T06:50:49.967Z,82.6
2019-05-02T06:52:49.978Z,80.5
2019-05-02T06:54:59.333Z,82.1
2019-05-02T06:56:50.559Z,81.2
2019-05-02T06:58:50.711Z,79.7
2019-05-02T07:00:59.414Z,77.1
2019-05-02T07:02:50.513Z,76.6
2019-05-02T07:04:56.266Z,78.9
2019-05-02T07:07:00.536Z,80.2
2019-05-02T07:08:51.350Z,77.9
2019-05-02T07:10:50.451Z,77.9
2019-05-02T07:13:15.224Z,75.4
2019-05-02T07:14:50.209Z,73.8
2019-05-02T07:16:56.778Z,74.1
2019-05-02T07:18:50.140Z,72.1
2019-05-02T07:20:50.206Z,71.3
2019-05-02T07:22:50.244Z,71.5
2019-05-02T07:24:50.371Z,71.9
2019-05-02T07:26:58.361Z,72.6
2019-05-02T07:28:50.446Z,71.7
2019-05-02T07:30:50.469Z,71.9
2019-05-02T07:32:50.538Z,69.8
2019-05-02T07:34:49.989Z,70.2
2019-05-02T07:36:50.118Z,70.2
2019-05-02T07:38:50.144Z,70.2
2019-05-02T07:40:54.604Z,69.0
2019-05-02T07:42:50.596Z,71.5
2019-05-02T07:44:50.665Z,71.0
2019-05-02T07:47:04.674Z,71.0
2019-05-02T07:48:56.913Z,68.0
2019-05-02T07:50:51.797Z,67.9
2019-05-02T07:52:49.998Z,69.8
2019-05-02T07:54:50.006Z,66.0
2019-05-02T07:56:54.979Z,69.5
2019-05-02T07:58:50.090Z,65
2019-05-02T08:00:50.108Z,64
2019-05-02T08:02:50.109Z,64
2019-05-02T08:04:50.475Z,64
2019-05-02T08:06:49.771Z,64
2019-05-02T08:08:49.916Z,64
2019-05-02T08:11:03.529Z,63.9
2019-05-02T08:12:50.234Z,65.5
2019-05-02T08:14:50.278Z,65.2
2019-05-02T08:16:50.502Z,63.3
2019-05-02T08:18:50.575Z,62.3
2019-05-02T08:20:57.588Z,63
2019-05-02T08:22:51.234Z,63
2019-05-02T08:24:50.246Z,61.7
2019-05-02T08:26:59.842Z,61.3
2019-05-02T08:28:53.579Z,62.6
2019-05-02T08:30:50.596Z,62.3
2019-05-02T08:32:50.631Z,61.1
2019-05-02T08:34:53.818Z,62.2
2019-05-02T08:36:50.067Z,61.4
2019-05-02T08:38:55.744Z,59.6
2019-05-02T08:40:50.756Z,58.4
2019-05-02T08:42:49.789Z,58.2
2019-05-02T08:45:03.274Z,58.4
2019-05-02T08:46:53.592Z,58.1
2019-05-02T08:48:51.277Z,58.7
2019-05-02T08:50:50.404Z,58.7
2019-05-02T08:52:50.451Z,57.9
2019-05-02T08:54:50.456Z,58.6
2019-05-02T08:57:00.823Z,56.3
2019-05-02T08:58:51.575Z,59
2019-05-02T09:00:50.581Z,59
2019-05-02T09:02:50.600Z,57
2019-05-02T09:05:06.196Z,57
2019-05-02T09:07:01.155Z,54.7
2019-05-02T09:08:53.169Z,57
2019-05-02T09:10:50.255Z,57
2019-05-02T09:12:52.438Z,53.3
2019-05-02T09:14:52.501Z,52.1
2019-05-02T09:16:52.739Z,53.5
2019-05-02T09:18:54.774Z,53.5
2019-05-02T09:20:57.090Z,53.5
2019-05-02T09:22:56.415Z,53.6
2019-05-02T09:24:52.371Z,53.2
2019-05-02T09:26:52.311Z,53.2
2019-05-02T09:29:05.677Z,53.2
2019-05-02T09:31:06.739Z,52.6
2019-05-02T09:33:01.732Z,54.5
2019-05-02T09:35:06.377Z,52.8
2019-05-02T09:36:50.444Z,52.0
2019-05-02T09:38:58.003Z,52.0
2019-05-02T09:40:56.648Z,55
2019-05-02T09:43:05.026Z,52.5
2019-05-02T09:44:57.385Z,52.6
2019-05-02T09:46:57.599Z,51.4
2019-05-02T09:48:52.381Z,54
2019-05-02T09:50:50.426Z,54
2019-05-02T09:52:52.838Z,51.4
2019-05-02T09:54:52.025Z,52
2019-05-02T09:56:52.787Z,52
2019-05-02T09:59:27.490Z,53
2019-05-02T10:00:49.983Z,53
2019-05-02T10:02:51.859Z,53
2019-05-02T10:04:52.762Z,53
2019-05-02T10:06:52.851Z,53
2019-05-02T10:08:52.453Z,53
2019-05-02T10:10:52.624Z,53
2019-05-02T10:12:52.477Z,52
2019-05-02T10:14:52.904Z,52
2019-05-02T10:16:50.236Z,52
2019-05-02T10:18:52.761Z,52
2019-05-02T10:20:49.923Z,52
2019-05-02T10:22:49.953Z,52
2019-05-02T10:24:52.334Z,51
2019-05-02T10:27:08.727Z,51
2019-05-02T10:28:53.786Z,52
2019-05-02T10:30:57.193Z,51
2019-05-02T10:32:57.747Z,52
2019-05-02T10:34:57.282Z,51
2019-05-02T10:37:03.340Z,52
2019-05-02T10:39:01.935Z,52
2019-05-02T10:41:05.034Z,51
2019-05-02T10:42:52.648Z,51
2019-05-02T10:44:52.522Z,50
2019-05-02T10:46:49.808Z,49
2019-05-02T10:48:52.900Z,49
2019-05-02T10:50:49.969Z,48
2019-05-02T10:52:49.928Z,48
2019-05-02T10:54:49.998Z,49
2019-05-02T10:56:52.212Z,49
2019-05-02T10:58:52.677Z,48
2019-05-02T11:00:49.803Z,47
2019-05-02T11:02:49.871Z,46
2019-05-02T11:04:52.588Z,46
2019-05-02T11:06:52.105Z,46
2019-05-02T11:08:52.832Z,46
2019-05-02T11:10:49.853Z,46
2019-05-02T11:12:49.897Z,46
2019-05-02T11:14:52.058Z,46
2019-05-02T11:16:51.977Z,46
2019-05-02T11:18:53.009Z,46
2019-05-02T11:20:50.119Z,45
2019-05-02T11:22:54.952Z,45
2019-05-02T11:24:50.001Z,45
2019-05-02T11:26:50.135Z,44
2019-05-02T11:28:52.578Z,45
2019-05-02T11:31:06.312Z,45
2019-05-02T11:32:52.526Z,45
2019-05-02T11:34:50.020Z,45
2019-05-02T11:36:52.912Z,45
2019-05-02T11:39:32.723Z,43
2019-05-02T11:40:52.326Z,44
2019-05-02T11:42:52.523Z,44
2019-05-02T11:44:52.737Z,43
2019-05-02T11:46:52.298Z,44
2019-05-02T11:48:59.032Z,44
2019-05-02T11:50:52.650Z,43
2019-05-02T11:52:52.756Z,40.4
2019-05-02T11:54:52.540Z,43
2019-05-02T11:56:53.943Z,43
2019-05-02T11:58:53.143Z,41
2019-05-02T12:00:52.659Z,42
2019-05-02T12:02:58.687Z,42
2019-05-02T12:04:55.877Z,39.2
2019-05-02T12:07:05.204Z,41.2
2019-05-02T12:08:52.219Z,42.4
2019-05-02T12:10:52.397Z,41.6
2019-05-02T12:12:52.955Z,40.6
2019-05-02T12:14:50.070Z,40.1
2019-05-02T12:16:50.242Z,40.8
2019-05-02T12:18:50.345Z,41.4
2019-05-02T12:20:52.554Z,41.5
2019-05-02T12:22:53.043Z,39.8
2019-05-02T12:24:52.363Z,38.6
2019-05-02T12:26:53.043Z,39.3
2019-05-02T12:28:50.138Z,40.1
2019-05-02T12:30:52.366Z,40.9
2019-05-02T12:32:50.368Z,42
2019-05-02T12:34:49.879Z,43
2019-05-02T12:36:51.776Z,40.8
2019-05-02T12:38:50.365Z,41.4
2019-05-02T12:40:52.501Z,40.2
2019-05-02T12:42:52.761Z,40.5
2019-05-02T12:44:49.878Z,39.8
2019-05-02T12:46:52.231Z,42
2019-05-02T12:48:52.483Z,42
2019-05-02T12:50:53.099Z,40.2
2019-05-02T12:52:55.770Z,41.2
2019-05-02T12:54:49.848Z,43.4
2019-05-02T12:56:50.094Z,43.3
2019-05-02T12:58:50.146Z,42.2
2019-05-02T13:00:52.751Z,41.5
2019-05-02T13:02:50.095Z,41.5
2019-05-02T13:04:52.520Z,40.9
2019-05-02T13:06:49.992Z,40.7
2019-05-02T13:08:52.905Z,37.5
2019-05-02T13:11:07.195Z,42
2019-05-02T13:12:50.502Z,39
2019-05-02T13:14:50.473Z,40
2019-05-02T13:17:06.246Z,40
2019-05-02T13:18:52.392Z,40
2019-05-02T13:20:52.567Z,41
2019-05-02T13:22:53.060Z,41
2019-05-02T13:24:56.630Z,41
2019-05-02T13:27:04.657Z,41
2019-05-02T13:28:52.063Z,40.0
2019-05-02T13:30:52.086Z,40.7
2019-05-02T13:32:58.283Z,40.2
2019-05-02T13:34:57.490Z,39.3
2019-05-02T13:36:52.383Z,40.3
2019-05-02T13:38:52.264Z,39.9
2019-05-02T13:40:52.138Z,42
2019-05-02T13:42:52.424Z,42
2019-05-02T13:44:52.997Z,42
2019-05-02T13:46:50.072Z,42
2019-05-02T13:48:50.124Z,42
2019-05-02T13:50:52.228Z,42
2019-05-02T13:52:58.385Z,42
2019-05-02T13:54:52.622Z,42
2019-05-02T13:56:53.403Z,42
2019-05-02T13:58:52.342Z,42
2019-05-02T14:00:50.405Z,42
2019-05-02T14:02:52.371Z,41
2019-05-02T14:04:52.531Z,42
2019-05-02T14:06:53.050Z,42
2019-05-02T14:08:50.206Z,42
2019-05-02T14:10:50.171Z,42
2019-05-02T14:12:50.230Z,42
2019-05-02T14:14:52.316Z,42
2019-05-02T14:16:50.472Z,42
2019-05-02T14:18:50.456Z,42
2019-05-02T14:20:52.813Z,42
2019-05-02T14:22:49.799Z,42
2019-05-02T14:24:52.270Z,41
2019-05-02T14:26:52.961Z,41
2019-05-02T14:28:50.034Z,41
2019-05-02T14:30:51.949Z,40.3
2019-05-02T14:32:52.755Z,42
2019-05-02T14:34:50.107Z,42
2019-05-02T14:37:02.138Z,42
2019-05-02T14:38:52.593Z,42.7
2019-05-02T14:40:52.457Z,43.4
2019-05-02T14:42:53.174Z,43.5
2019-05-02T14:45:30.193Z,42.7
2019-05-02T14:46:52.074Z,42.1
2019-05-02T14:48:52.795Z,41.5
2019-05-02T14:50:51.630Z,43
2019-05-02T14:52:52.023Z,43
2019-05-02T14:54:49.997Z,43
2019-05-02T14:56:52.652Z,43
2019-05-02T14:58:53.254Z,43
2019-05-02T15:00:50.237Z,42
2019-05-02T15:02:52.276Z,42
2019-05-02T15:04:52.878Z,42
2019-05-02T15:06:52.281Z,43
2019-05-02T15:08:52.926Z,42
2019-05-02T15:10:56.989Z,43
2019-05-02T15:13:04.021Z,43
2019-05-02T15:14:59.081Z,42
2019-05-02T15:16:58.865Z,43
2019-05-02T15:18:57.413Z,43
2019-05-02T15:20:52.471Z,43
2019-05-02T15:22:52.703Z,43
2019-05-02T15:24:52.457Z,43
2019-05-02T15:26:52.663Z,43
2019-05-02T15:28:52.480Z,43
2019-05-02T15:30:52.661Z,43
2019-05-02T15:32:52.489Z,43
2019-05-02T15:34:49.753Z,43
2019-05-02T15:36:49.994Z,43
2019-05-02T15:38:50.040Z,43
2019-05-02T15:40:54.170Z,43
2019-05-02T15:43:07.239Z,43
2019-05-02T15:44:50.008Z,43
2019-05-02T15:46:52.295Z,43
2019-05-02T15:48:52.387Z,43
2019-05-02T15:51:09.188Z,43
2019-05-02T15:52:50.004Z,43
2019-05-02T15:55:04.473Z,43
2019-05-02T15:57:06.081Z,43
2019-05-02T15:58:52.551Z,43
2019-05-02T16:01:04.866Z,44
2019-05-02T16:03:04.219Z,43
2019-05-02T16:05:05.272Z,43
2019-05-02T16:06:50.131Z,43
2019-05-02T16:08:52.869Z,43
2019-05-02T16:10:50.120Z,43
2019-05-02T16:12:50.106Z,43
2019-05-02T16:14:50.187Z,43
2019-05-02T16:16:52.512Z,43
2019-05-02T16:18:53.298Z,43
2019-05-02T16:21:08.174Z,43
2019-05-02T16:22:52.683Z,44
2019-05-02T16:24:56.931Z,44
2019-05-02T16:26:50.113Z,44
2019-05-02T16:28:51.934Z,44
2019-05-02T16:30:49.971Z,44
2019-05-02T16:32:52.522Z,44
2019-05-02T16:34:55.246Z,43.3
2019-05-02T16:36:52.165Z,44.8
2019-05-02T16:38:52.415Z,45.8
2019-05-02T16:40:52.945Z,44.9
2019-05-02T16:42:52.243Z,46.1
2019-05-02T16:44:55.264Z,45.3
2019-05-02T16:46:54.630Z,45.6
2019-05-02T16:48:49.851Z,46.1
2019-05-02T16:50:49.867Z,45.9
2019-05-02T16:52:49.991Z,45.9
2019-05-02T16:54:50.038Z,46.6
2019-05-02T16:56:52.419Z,46.3
2019-05-02T16:58:52.558Z,46.2
2019-05-02T17:00:52.644Z,46.5
2019-05-02T17:02:49.906Z,46.3
2019-05-02T17:04:55.128Z,45.6
2019-05-02T17:06:56.700Z,46.0
2019-05-02T17:08:59.007Z,46.2
2019-05-02T17:10:57.346Z,46.6
2019-05-02T17:13:02.831Z,46.3
2019-05-02T17:14:55.193Z,46.4
2019-05-02T17:16:56.255Z,47.1
2019-05-02T17:18:56.876Z,46.8
2019-05-02T17:20:57.372Z,47.0
2019-05-02T17:23:07.800Z,46.9
2019-05-02T17:24:54.144Z,46.8
2019-05-02T17:26:52.257Z,47.0
2019-05-02T17:28:52.424Z,47.2
2019-05-02T17:30:52.817Z,46.8
2019-05-02T17:32:49.805Z,47.5
2019-05-02T17:34:50.201Z,47.3
2019-05-02T17:36:52.266Z,48.3
2019-05-02T17:39:03.846Z,47.3
2019-05-02T17:41:07.791Z,47.5
2019-05-02T17:43:06.938Z,48.7
2019-05-02T17:45:04.155Z,47.9
2019-05-02T17:47:02.046Z,48.0
2019-05-02T17:48:54.177Z,48.0
2019-05-02T17:51:02.452Z,48.9
2019-05-02T17:52:50.514Z,48.9
2019-05-02T17:54:57.240Z,49.2
2019-05-02T17:56:59.350Z,49.1
2019-05-02T17:58:58.730Z,48.9
2019-05-02T18:01:02.741Z,49.9
2019-05-02T18:02:53.612Z,49.4
2019-05-02T18:04:56.188Z,49.4
2019-05-02T18:06:55.602Z,49.7
2019-05-02T18:08:55.720Z,50.4
2019-05-02T18:11:03.036Z,51.2
2019-05-02T18:13:00.354Z,50.7
2019-05-02T18:15:03.511Z,50.7
2019-05-02T18:16:55.995Z,50.5
2019-05-02T18:18:52.027Z,51.5
2019-05-02T18:20:50.227Z,50.8
2019-05-02T18:22:52.397Z,50.8
2019-05-02T18:24:52.502Z,49.9
2019-05-02T18:26:52.068Z,49.9
2019-05-02T18:28:50.056Z,50.9
2019-05-02T18:31:01.523Z,50.4
2019-05-02T18:32:50.105Z,50.2
2019-05-02T18:35:06.377Z,49.7
2019-05-02T18:37:06.315Z,49.9
2019-05-02T18:39:05.430Z,50.1
2019-05-02T18:40:51.654Z,49.4
2019-05-02T18:43:05.107Z,49.6
2019-05-02T18:44:54.880Z,49.6
2019-05-02T18:46:52.215Z,49.8
2019-05-02T18:48:52.281Z,50.1
2019-05-02T18:50:53.041Z,49.9
2019-05-02T18:52:50.090Z,49.7
2019-05-02T18:54:52.088Z,49.5
2019-05-02T18:56:55.797Z,49.1
2019-05-02T18:58:49.996Z,48.6
2019-05-02T19:00:52.434Z,48.6
2019-05-02T19:02:50.485Z,48.3
2019-05-02T19:04:52.034Z,49.0
2019-05-02T19:06:52.269Z,48.6
2019-05-02T19:08:52.710Z,49.0
2019-05-02T19:11:12.735Z,48.9
2019-05-02T19:12:50.519Z,49.8
2019-05-02T19:14:52.897Z,50.0
2019-05-02T19:16:52.461Z,50.5
2019-05-02T19:18:57.852Z,50.6
2019-05-02T19:20:58.097Z,50.6
2019-05-02T19:22:57.328Z,50.2
2019-05-02T19:24:52.714Z,50.1
2019-05-02T19:26:56.664Z,50.2
2019-05-02T19:28:52.789Z,50.2
2019-05-02T19:30:52.133Z,50.0
2019-05-02T19:32:50.318Z,51.3
2019-05-02T19:34:50.615Z,50.9
2019-05-02T19:36:49.952Z,50.7
2019-05-02T19:38:49.906Z,50.5
2019-05-02T19:40:52.147Z,50.3
2019-05-02T19:42:50.677Z,50.4
2019-05-02T19:44:52.870Z,50.4
2019-05-02T19:46:52.380Z,50.3
2019-05-02T19:48:50.416Z,51.0
2019-05-02T19:50:52.229Z,50.7
2019-05-02T19:53:04.812Z,51.0
2019-05-02T19:54:52.232Z,51.4
2019-05-02T19:56:52.862Z,51.7
2019-05-02T19:58:51.791Z,54.7
2019-05-02T20:00:50.217Z,52.2
2019-05-02T20:02:52.453Z,54.1
2019-05-02T20:04:49.758Z,55.8
2019-05-02T20:06:49.833Z,56.1
2019-05-02T20:09:08.369Z,56.1
2019-05-02T20:10:58.767Z,59.1
2019-05-02T20:12:53.102Z,54.5
2019-05-02T20:14:50.191Z,53.1
2019-05-02T20:16:50.362Z,51.2
2019-05-02T20:18:52.629Z,51.1
2019-05-02T20:20:52.393Z,50.5
2019-05-02T20:22:52.730Z,51.6
2019-05-02T20:25:04.120Z,51.9
2019-05-02T20:26:56.429Z,52.0
2019-05-02T20:28:52.950Z,53.9
2019-05-02T20:30:49.990Z,55.2
2019-05-02T20:32:52.131Z,56.1
2019-05-02T20:34:50.505Z,56.9
2019-05-02T20:36:52.239Z,58.0
2019-05-02T20:38:52.401Z,58.2
2019-05-02T20:40:52.628Z,59.5
2019-05-02T20:42:52.947Z,61.0
2019-05-02T20:44:50.181Z,61.8
2019-05-02T20:46:52.025Z,62.1
2019-05-02T20:48:50.098Z,63.3
2019-05-02T20:50:52.418Z,64.5
2019-05-02T20:52:52.686Z,65.6
2019-05-02T20:54:52.830Z,68.7
2019-05-02T20:56:52.370Z,69.6
2019-05-02T20:58:52.806Z,72.0
2019-05-02T21:01:09.066Z,74.8
2019-05-02T21:02:52.098Z,74.8
2019-05-02T21:04:52.626Z,78.3
2019-05-02T21:06:53.075Z,79.1
2019-05-02T21:08:50.094Z,81.2
2019-05-02T21:10:52.197Z,82.3
2019-05-02T21:12:50.288Z,83.2
2019-05-02T21:14:52.642Z,83.9
2019-05-02T21:16:49.877Z,84.1
2019-05-02T21:18:49.880Z,84.0
2019-05-02T21:20:50.145Z,84.8
2019-05-02T21:22:50.130Z,84.8
2019-05-02T21:24:50.120Z,86.4
2019-05-02T21:26:52.688Z,86.9
2019-05-02T21:28:52.534Z,87.5
2019-05-02T21:30:52.797Z,87.0
2019-05-02T21:32:51.950Z,86.5
2019-05-02T21:34:52.430Z,86.5
2019-05-02T21:36:52.311Z,87.8
2019-05-02T21:38:52.532Z,87.6
2019-05-02T21:40:52.801Z,87.4
2019-05-02T21:42:52.056Z,88.1
2019-05-02T21:44:52.246Z,89.8
2019-05-02T21:46:52.301Z,88.8
2019-05-02T21:48:52.872Z,89.2
2019-05-02T21:50:49.855Z,89.2
2019-05-02T21:52:52.292Z,89.7
2019-05-02T21:54:52.551Z,89.8
2019-05-02T21:56:49.863Z,89.6
2019-05-02T21:58:52.083Z,89.0
2019-05-02T22:00:50.127Z,89.4
2019-05-02T22:02:52.595Z,89.1
2019-05-02T22:04:50.010Z,90.2
2019-05-02T22:06:52.673Z,89.7
2019-05-02T22:08:49.768Z,90.5
2019-05-02T22:10:49.852Z,90.0
2019-05-02T22:12:52.083Z,88.1
2019-05-02T22:14:50.169Z,88.1
2019-05-02T22:16:53.200Z,87.4
2019-05-02T22:18:52.443Z,86.7
2019-05-02T22:20:52.710Z,85.8
2019-05-02T22:22:52.367Z,86.0
2019-05-02T22:24:52.661Z,86.0
2019-05-02T22:26:50.101Z,86.3
2019-05-02T22:28:53.466Z,86.4
2019-05-02T22:30:49.847Z,86.5
2019-05-02T22:32:54.667Z,86.6
2019-05-02T22:34:50.489Z,86.7
2019-05-02T22:36:49.928Z,86.7
2019-05-02T22:38:49.995Z,87.2
2019-05-02T22:40:50.112Z,87.3
2019-05-02T22:42:52.310Z,87.5
2019-05-02T22:44:50.484Z,87.8
2019-05-02T22:46:52.597Z,87.5
2019-05-02T22:48:51.915Z,87.2
2019-05-02T22:50:51.981Z,87.2
2019-05-02T22:52:52.578Z,86.4
2019-05-02T22:54:52.731Z,86.4
2019-05-02T22:56:52.448Z,85.9
2019-05-02T22:58:51.926Z,86.5
2019-05-02T23:00:49.953Z,86.6
2019-05-02T23:02:49.959Z,86.1
2019-05-02T23:04:53.120Z,85.9
2019-05-02T23:06:50.328Z,85.9
2019-05-02T23:08:52.727Z,86.5
2019-05-02T23:10:52.354Z,86.1
2019-05-02T23:12:52.114Z,85.8
2019-05-02T23:14:50.163Z,86.3
2019-05-02T23:16:53.154Z,86.8
2019-05-02T23:18:52.300Z,86.8
2019-05-02T23:20:52.475Z,87.1
2019-05-02T23:22:52.708Z,86.8
2019-05-02T23:24:52.101Z,86.8
2019-05-02T23:26:52.227Z,88.9
2019-05-02T23:28:52.116Z,87.4
2019-05-02T23:30:52.238Z,88.0
2019-05-02T23:32:52.087Z,88.0
2019-05-02T23:34:52.589Z,88.9
2019-05-02T23:36:52.397Z,89.3
2019-05-02T23:38:52.533Z,90.3
2019-05-02T23:40:52.545Z,90.6
2019-05-02T23:42:49.792Z,89.6
2019-05-02T23:44:52.107Z,90.2
2019-05-02T23:46:51.983Z,91.4
2019-05-02T23:48:50.127Z,90.5
2019-05-02T23:50:52.332Z,89.9
2019-05-02T23:52:50.399Z,91.5
2019-05-02T23:54:52.970Z,90.1
2019-05-02T23:56:50.192Z,91.1
2019-05-02T23:58:52.354Z,91.5
